Time;durP1;ratioP1;P1;durP2;ratioP2;P2;SDS_P1;SDS_P2;PMS_P1;PMS_P2;Temp;Humidity;BMP_temperature;BMP_pressure;BME280_temperature;BME280_humidity;BME280_pressure;Samples;Min_cycle;Max_cycle;Signal;HPM_P1;HPM_P2
2021/12/01 00:01:44;;;;;;;0.10;0.10;;;5.30;99.90;;;;;;5053108;28;20053;-86
2021/12/01 00:04:11;;;;;;;0.30;0.20;;;5.30;99.90;;;;;;5035202;28;20045;-85
2021/12/01 00:06:38;;;;;;;0.00;0.00;;;5.30;99.90;;;;;;5035284;28;20481;-85
2021/12/01 00:09:05;;;;;;;0.15;0.15;;;5.30;99.90;;;;;;5035420;28;20507;-85
2021/12/01 00:11:32;;;;;;;0.10;0.10;;;5.40;99.90;;;;;;5035410;28;20394;-86
2021/12/01 00:13:59;;;;;;;0.00;0.00;;;5.40;99.90;;;;;;5052898;28;20140;-86
2021/12/01 00:16:26;;;;;;;0.00;0.00;;;5.40;99.90;;;;;;5053075;28;20583;-85
2021/12/01 00:18:53;;;;;;;0.10;0.10;;;5.40;99.90;;;;;;5034980;28;20064;-86
2021/12/01 00:21:19;;;;;;;0.00;0.00;;;5.40;99.90;;;;;;5035559;28;20049;-86
2021/12/01 00:23:48;;;;;;;0.10;0.10;;;5.50;99.90;;;;;;5053092;28;20045;-86
2021/12/01 00:26:14;;;;;;;0.10;0.00;;;5.40;99.90;;;;;;5035488;28;20048;-85
2021/12/01 00:28:41;;;;;;;0.00;0.00;;;5.50;99.90;;;;;;5035497;28;20545;-85
2021/12/01 00:31:08;;;;;;;0.10;0.10;;;5.50;99.90;;;;;;5053037;28;20052;-86
2021/12/01 00:33:35;;;;;;;0.00;0.00;;;5.50;99.90;;;;;;5052612;28;20099;-86
2021/12/01 00:36:02;;;;;;;0.10;0.10;;;5.50;99.90;;;;;;5053109;28;20045;-87
2021/12/01 00:38:29;;;;;;;0.10;0.10;;;5.60;99.90;;;;;;5035388;28;20152;-87
2021/12/01 00:40:56;;;;;;;0.30;0.05;;;5.60;99.90;;;;;;5035617;28;20124;-88
2021/12/01 00:43:25;;;;;;;0.10;0.10;;;5.60;99.90;;;;;;5052941;28;20060;-86
2021/12/01 00:45:57;;;;;;;0.00;0.00;;;5.60;99.90;;;;;;5035486;28;20049;-87
2021/12/01 00:48:26;;;;;;;0.00;0.00;;;5.70;99.90;;;;;;5035191;28;20045;-87
2021/12/01 00:50:54;;;;;;;0.00;0.00;;;5.70;99.90;;;;;;5037789;28;20061;-88
2021/12/01 00:53:21;;;;;;;0.00;0.00;;;5.60;99.90;;;;;;5039113;28;20143;-85
2021/12/01 00:55:48;;;;;;;0.00;0.00;;;5.60;99.90;;;;;;5039074;28;20049;-89
2021/12/01 00:58:16;;;;;;;0.00;0.00;;;5.60;99.90;;;;;;5038787;28;20478;-88
2021/12/01 01:00:44;;;;;;;0.80;0.00;;;5.60;99.90;;;;;;5056333;28;20078;-88
2021/12/01 01:03:11;;;;;;;0.00;0.00;;;5.70;99.90;;;;;;5038926;28;20056;-89
2021/12/01 01:05:38;;;;;;;0.00;0.00;;;5.70;99.90;;;;;;5039127;28;20550;-86
2021/12/01 01:08:06;;;;;;;0.00;0.00;;;5.70;99.90;;;;;;5039095;28;20060;-86
2021/12/01 01:10:46;;;;;;;0.28;0.00;;;5.70;99.90;;;;;;5038425;28;20055;-87
2021/12/01 01:18:49;;;;;;;0.00;0.00;;;5.70;99.90;;;;;;5055975;28;20498;-88
2021/12/01 01:21:16;;;;;;;0.00;0.00;;;5.70;99.90;;;;;;5043918;28;20087;-88
2021/12/01 01:23:44;;;;;;;0.00;0.00;;;5.80;99.90;;;;;;5061850;28;20109;-89
2021/12/01 01:26:13;;;;;;;0.00;0.00;;;5.80;99.90;;;;;;5038629;28;20408;-88
2021/12/01 01:28:41;;;;;;;1.35;0.00;;;5.70;99.90;;;;;;5054986;28;20053;-89
2021/12/01 01:31:09;;;;;;;0.00;0.00;;;5.70;99.90;;;;;;5038450;28;20052;-91
2021/12/01 01:33:36;;;;;;;0.30;0.10;;;5.70;99.90;;;;;;5038391;28;20132;-88
2021/12/01 01:36:03;;;;;;;0.00;0.00;;;5.70;99.90;;;;;;5038439;28;20117;-89
2021/12/01 01:38:32;;;;;;;0.00;0.00;;;5.70;99.90;;;;;;5038340;28;20049;-87
2021/12/01 01:41:06;;;;;;;0.00;0.00;;;5.70;99.90;;;;;;5038368;28;20134;-87
2021/12/01 01:43:34;;;;;;;0.00;0.00;;;5.70;99.90;;;;;;5038435;28;20144;-89
2021/12/01 01:46:01;;;;;;;0.10;0.00;;;5.70;99.90;;;;;;5038208;28;20059;-88
2021/12/01 01:48:31;;;;;;;0.00;0.00;;;5.60;99.90;;;;;;5037159;28;20128;-88
2021/12/01 01:51:01;;;;;;;0.00;0.00;;;5.70;99.90;;;;;;5037994;28;20052;-88
2021/12/01 01:53:29;;;;;;;0.43;0.17;;;5.70;99.90;;;;;;5038027;28;20103;-89
2021/12/01 01:55:59;;;;;;;0.00;0.00;;;5.70;99.90;;;;;;5038124;28;20499;-87
2021/12/01 01:58:28;;;;;;;0.10;0.10;;;5.70;99.90;;;;;;5037864;28;20049;-88
2021/12/01 02:01:06;;;;;;;0.00;0.00;;;5.80;99.90;;;;;;5037247;28;20136;-88
2021/12/01 02:03:43;;;;;;;0.10;0.08;;;5.80;99.90;;;;;;5037714;28;20119;-89
2021/12/01 02:06:12;;;;;;;0.00;0.00;;;5.80;99.90;;;;;;5038150;28;20041;-88
2021/12/01 02:08:40;;;;;;;0.00;0.00;;;5.80;99.90;;;;;;5037351;28;20424;-87
2021/12/01 02:11:11;;;;;;;0.00;0.00;;;5.80;99.90;;;;;;5037742;28;20041;-87
2021/12/01 02:13:39;;;;;;;0.10;0.10;;;5.90;99.90;;;;;;5037534;28;20470;-90
2021/12/01 02:16:06;;;;;;;0.00;0.00;;;5.90;99.90;;;;;;5040984;28;20051;-88
2021/12/01 02:18:35;;;;;;;0.00;0.00;;;6.00;99.90;;;;;;5041449;28;20102;-86
2021/12/01 02:21:27;;;;;;;0.00;0.00;;;6.00;99.90;;;;;;5037925;28;20057;-88
2021/12/01 02:24:08;;;;;;;0.00;0.00;;;6.00;99.90;;;;;;5037527;28;20060;-88
2021/12/01 02:26:38;;;;;;;0.00;0.00;;;6.00;99.90;;;;;;5037564;28;20124;-87
2021/12/01 02:29:09;;;;;;;0.00;0.00;;;6.00;99.90;;;;;;5037703;28;20561;-87
2021/12/01 02:31:37;;;;;;;0.00;0.00;;;6.00;99.90;;;;;;5037639;28;20404;-88
2021/12/01 02:34:07;;;;;;;0.57;0.00;;;6.00;99.90;;;;;;5037380;28;20057;-88
2021/12/01 02:36:34;;;;;;;0.00;0.00;;;6.00;99.90;;;;;;5037449;28;20438;-90
2021/12/01 02:39:03;;;;;;;0.00;0.00;;;6.00;99.90;;;;;;5036953;28;20519;-87
2021/12/01 02:41:32;;;;;;;0.10;0.00;;;6.00;99.90;;;;;;5037521;28;20052;-87
2021/12/01 02:44:00;;;;;;;0.35;0.00;;;6.00;99.90;;;;;;5055366;28;20051;-88
2021/12/01 02:46:27;;;;;;;0.10;0.00;;;6.00;99.90;;;;;;5037494;28;20128;-88
2021/12/01 02:48:56;;;;;;;0.10;0.10;;;6.00;99.90;;;;;;5037006;28;20115;-88
2021/12/01 02:51:27;;;;;;;0.32;0.20;;;6.00;99.90;;;;;;5037305;28;20128;-88
2021/12/01 02:53:54;;;;;;;0.10;0.10;;;6.00;99.90;;;;;;5037189;28;20133;-87
2021/12/01 02:56:22;;;;;;;0.13;0.10;;;6.00;99.90;;;;;;5036766;28;20083;-87
2021/12/01 02:58:50;;;;;;;0.03;0.03;;;6.00;99.90;;;;;;5054184;28;20049;-87
2021/12/01 03:01:22;;;;;;;0.10;0.10;;;6.00;99.90;;;;;;5038973;28;20057;-87
2021/12/01 03:03:50;;;;;;;0.08;0.08;;;6.00;99.90;;;;;;5036688;28;20091;-87
2021/12/01 03:06:19;;;;;;;0.00;0.00;;;5.90;99.90;;;;;;5036945;28;20131;-87
2021/12/01 03:08:47;;;;;;;0.00;0.00;;;5.90;99.90;;;;;;5036429;28;20499;-86
2021/12/01 03:11:15;;;;;;;0.00;0.00;;;5.90;99.90;;;;;;5036563;28;20488;-87
2021/12/01 03:13:42;;;;;;;0.10;0.10;;;5.90;99.90;;;;;;5035771;28;20481;-87
2021/12/01 03:16:09;;;;;;;0.10;0.10;;;5.90;99.90;;;;;;5036408;28;20051;-89
2021/12/01 03:18:36;;;;;;;0.15;0.00;;;5.90;99.90;;;;;;5036298;28;20052;-88
2021/12/01 03:21:03;;;;;;;0.00;0.00;;;5.90;99.90;;;;;;5036424;28;20504;-88
2021/12/01 03:23:30;;;;;;;0.00;0.00;;;5.90;99.90;;;;;;5054064;28;20049;-87
2021/12/01 03:25:57;;;;;;;0.00;0.00;;;5.80;99.90;;;;;;5036543;28;20136;-90
2021/12/01 03:28:24;;;;;;;0.00;0.00;;;5.80;99.90;;;;;;5035971;28;20056;-87
2021/12/01 03:30:52;;;;;;;0.10;0.00;;;5.80;99.90;;;;;;5053717;28;20045;-88
2021/12/01 03:33:21;;;;;;;0.00;0.00;;;5.80;99.90;;;;;;5036187;28;20080;-88
2021/12/01 03:35:50;;;;;;;0.00;0.00;;;5.80;99.90;;;;;;5053745;28;20040;-89
2021/12/01 03:38:18;;;;;;;0.00;0.00;;;5.70;99.90;;;;;;5036025;28;20059;-87
2021/12/01 03:40:46;;;;;;;0.90;0.00;;;5.60;99.90;;;;;;5052548;28;20076;-88
2021/12/01 03:43:13;;;;;;;0.80;0.00;;;5.50;99.90;;;;;;5035960;28;20041;-88
2021/12/01 03:45:41;;;;;;;0.63;0.00;;;5.50;99.90;;;;;;5036193;28;20052;-86
2021/12/01 03:48:08;;;;;;;0.00;0.00;;;5.40;99.90;;;;;;5036190;28;20135;-88
2021/12/01 03:50:38;;;;;;;0.00;0.00;;;5.40;99.90;;;;;;5035611;28;20489;-88
2021/12/01 03:53:06;;;;;;;0.10;0.10;;;5.30;99.90;;;;;;5036013;28;20140;-87
2021/12/01 03:55:34;;;;;;;0.00;0.00;;;5.30;99.90;;;;;;5035970;28;20557;-87
2021/12/01 03:58:02;;;;;;;0.47;0.20;;;5.20;99.90;;;;;;5036033;28;20394;-87
2021/12/01 04:00:28;;;;;;;0.30;0.30;;;5.20;99.90;;;;;;5035752;28;20048;-89
2021/12/01 04:02:55;;;;;;;0.00;0.00;;;5.20;99.90;;;;;;5035560;28;20065;-87
2021/12/01 04:05:23;;;;;;;0.30;0.00;;;5.20;99.90;;;;;;5035806;28;20132;-87
2021/12/01 04:07:49;;;;;;;0.00;0.00;;;5.20;99.90;;;;;;5035679;28;20045;-87
2021/12/01 04:10:17;;;;;;;0.00;0.00;;;5.20;99.90;;;;;;5035663;28;20045;-88
2021/12/01 04:12:45;;;;;;;0.47;0.30;;;5.20;99.90;;;;;;5053394;28;20060;-88
2021/12/01 04:15:13;;;;;;;0.05;0.05;;;5.20;99.90;;;;;;5035849;28;20040;-88
2021/12/01 04:17:41;;;;;;;0.10;0.10;;;5.20;99.90;;;;;;5035506;28;20404;-88
2021/12/01 04:20:12;;;;;;;0.00;0.00;;;5.30;99.90;;;;;;5035695;28;20131;-87
2021/12/01 04:22:40;;;;;;;0.10;0.10;;;5.30;99.90;;;;;;5035617;28;20048;-87
2021/12/01 04:25:08;;;;;;;2.75;0.40;;;5.20;99.90;;;;;;5056022;28;20049;-87
2021/12/01 04:27:35;;;;;;;0.10;0.10;;;5.20;99.90;;;;;;5039492;28;20049;-87
2021/12/01 04:30:03;;;;;;;0.10;0.10;;;5.20;99.90;;;;;;5057057;28;20052;-87
2021/12/01 04:32:30;;;;;;;0.10;0.10;;;5.20;99.90;;;;;;5039138;28;20607;-88
2021/12/01 04:34:58;;;;;;;0.08;0.08;;;5.20;99.90;;;;;;5038541;28;20519;-87
2021/12/01 04:37:25;;;;;;;0.00;0.00;;;5.20;99.90;;;;;;5056549;28;20063;-88
2021/12/01 04:39:53;;;;;;;0.10;0.10;;;5.20;99.90;;;;;;5057093;28;20052;-88
2021/12/01 04:42:20;;;;;;;0.10;0.10;;;5.30;99.90;;;;;;5056720;28;20051;-89
2021/12/01 04:44:47;;;;;;;0.10;0.10;;;5.30;99.90;;;;;;5039273;28;20501;-87
2021/12/01 04:47:14;;;;;;;3.35;0.70;;;5.40;99.90;;;;;;5039102;28;20053;-86
2021/12/01 04:49:41;;;;;;;0.10;0.10;;;5.40;99.90;;;;;;5055614;28;20059;-89
2021/12/01 04:52:10;;;;;;;0.10;0.10;;;5.40;99.90;;;;;;5039102;28;20083;-87
2021/12/01 04:54:38;;;;;;;0.10;0.10;;;5.40;99.90;;;;;;5056908;28;20049;-88
2021/12/01 04:57:06;;;;;;;0.08;0.08;;;5.40;99.90;;;;;;5055730;28;20053;-87
2021/12/01 04:59:34;;;;;;;0.10;0.10;;;5.40;99.90;;;;;;5039038;28;20068;-87
2021/12/01 05:02:01;;;;;;;0.15;0.10;;;5.40;99.90;;;;;;5056090;28;20045;-85
2021/12/01 05:04:28;;;;;;;0.63;0.13;;;5.40;99.90;;;;;;5055327;28;20045;-87
2021/12/01 05:06:56;;;;;;;0.08;0.00;;;5.40;99.90;;;;;;5056450;28;20052;-87
2021/12/01 05:09:22;;;;;;;0.05;0.00;;;5.40;99.90;;;;;;5056736;28;20049;-88
2021/12/01 05:11:49;;;;;;;0.00;0.00;;;5.40;99.90;;;;;;5039559;28;20041;-86
2021/12/01 05:14:16;;;;;;;0.10;0.10;;;5.40;99.90;;;;;;5056214;28;20052;-87
2021/12/01 05:16:43;;;;;;;0.10;0.10;;;5.40;99.90;;;;;;5038721;28;20048;-86
2021/12/01 05:19:11;;;;;;;0.10;0.10;;;5.40;99.90;;;;;;5055287;28;20053;-86
2021/12/01 05:21:39;;;;;;;0.30;0.10;;;5.40;99.90;;;;;;5039123;28;20131;-86
2021/12/01 05:24:06;;;;;;;0.20;0.10;;;5.50;99.90;;;;;;5038731;28;20504;-86
2021/12/01 05:26:33;;;;;;;0.20;0.10;;;5.40;99.90;;;;;;5056098;28;20049;-87
2021/12/01 05:29:00;;;;;;;0.10;0.10;;;5.50;99.90;;;;;;5038517;28;20497;-87
2021/12/01 05:31:27;;;;;;;0.85;0.10;;;5.40;99.90;;;;;;5038319;28;20049;-88
2021/12/01 05:33:55;;;;;;;0.20;0.20;;;5.40;99.90;;;;;;5038614;28;20059;-89
2021/12/01 05:36:22;;;;;;;1.45;0.10;;;5.40;99.90;;;;;;5055152;28;20127;-88
2021/12/01 05:38:49;;;;;;;0.20;0.20;;;5.40;99.90;;;;;;5038175;28;20059;-87
2021/12/01 05:41:15;;;;;;;0.50;0.32;;;5.30;99.90;;;;;;5038787;28;20128;-88
2021/12/01 05:43:43;;;;;;;0.30;0.20;;;5.30;99.90;;;;;;5036185;28;20059;-86
2021/12/01 05:46:10;;;;;;;0.22;0.22;;;5.30;99.90;;;;;;5038062;28;20041;-86
2021/12/01 05:48:37;;;;;;;0.30;0.30;;;5.20;99.90;;;;;;5037465;28;20099;-86
2021/12/01 05:51:04;;;;;;;0.30;0.30;;;5.20;99.90;;;;;;5055558;28;20467;-85
2021/12/01 05:53:30;;;;;;;0.30;0.30;;;5.20;99.90;;;;;;5037980;28;20059;-85
2021/12/01 05:55:58;;;;;;;0.30;0.30;;;5.20;99.90;;;;;;5037907;28;20045;-87
2021/12/01 05:58:25;;;;;;;0.68;0.35;;;5.20;99.90;;;;;;5037965;28;20052;-86
2021/12/01 06:00:52;;;;;;;0.50;0.50;;;5.20;99.90;;;;;;5037425;28;20053;-86
2021/12/01 06:03:20;;;;;;;0.30;0.30;;;5.20;99.90;;;;;;5037888;28;20059;-87
2021/12/01 06:05:47;;;;;;;0.40;0.40;;;5.20;99.90;;;;;;5055611;28;20102;-89
2021/12/01 06:08:14;;;;;;;0.52;0.52;;;5.30;99.90;;;;;;5038763;28;20064;-88
2021/12/01 06:10:41;;;;;;;0.70;0.70;;;5.30;99.90;;;;;;5056535;28;20063;-87
2021/12/01 06:13:09;;;;;;;0.82;0.57;;;5.30;99.90;;;;;;5036150;28;20059;-87
2021/12/01 06:15:36;;;;;;;0.50;0.50;;;5.30;99.90;;;;;;5053603;28;20476;-86
2021/12/01 06:18:04;;;;;;;0.70;0.70;;;5.30;99.90;;;;;;5035908;28;20049;-88
2021/12/01 06:20:31;;;;;;;0.50;0.50;;;5.30;99.90;;;;;;5035974;28;20352;-86
2021/12/01 06:22:58;;;;;;;1.00;1.00;;;5.30;99.90;;;;;;5035913;28;20080;-88
2021/12/01 06:25:26;;;;;;;0.60;0.60;;;5.20;99.90;;;;;;5036324;28;20094;-86
2021/12/01 06:27:54;;;;;;;0.80;0.80;;;5.30;99.90;;;;;;5054293;28;20079;-86
2021/12/01 06:30:25;;;;;;;0.60;0.60;;;5.30;99.90;;;;;;5037598;28;20059;-87
2021/12/01 06:32:53;;;;;;;1.58;0.80;;;5.30;99.90;;;;;;5036911;28;20334;-87
2021/12/01 06:35:20;;;;;;;0.77;0.77;;;5.30;99.90;;;;;;5037199;28;20084;-86
2021/12/01 06:37:47;;;;;;;1.10;1.00;;;5.20;99.90;;;;;;5037326;28;20049;-87
2021/12/01 06:40:14;;;;;;;0.75;0.75;;;5.20;99.90;;;;;;5053594;28;20439;-87
2021/12/01 06:42:41;;;;;;;0.77;0.77;;;5.20;99.90;;;;;;5054603;28;20052;-85
2021/12/01 06:45:10;;;;;;;8.30;0.98;;;5.20;99.90;;;;;;5053541;28;20094;-86
2021/12/01 06:47:39;;;;;;;0.75;0.75;;;5.20;99.90;;;;;;5054477;28;20049;-86
2021/12/01 06:50:07;;;;;;;0.52;0.52;;;5.30;99.90;;;;;;5036883;28;20071;-85
2021/12/01 06:52:34;;;;;;;0.77;0.77;;;5.30;99.90;;;;;;5054236;28;20383;-87
2021/12/01 06:55:03;;;;;;;0.60;0.60;;;5.30;99.90;;;;;;5054134;28;20108;-86
2021/12/01 06:57:30;;;;;;;0.63;0.50;;;5.30;99.90;;;;;;5036430;28;20053;-87
2021/12/01 06:59:57;;;;;;;0.80;0.80;;;5.30;99.90;;;;;;5036711;28;20049;-89
2021/12/01 07:02:24;;;;;;;0.88;0.88;;;5.30;99.90;;;;;;5053037;28;20128;-90
2021/12/01 07:04:51;;;;;;;0.60;0.60;;;5.30;99.90;;;;;;5036322;28;20076;-87
2021/12/01 07:07:18;;;;;;;0.63;0.63;;;5.30;99.90;;;;;;5036420;28;20045;-87
2021/12/01 07:09:49;;;;;;;0.55;0.55;;;5.30;99.90;;;;;;5062287;28;20133;-87
2021/12/01 07:12:16;;;;;;;0.90;0.70;;;5.30;99.90;;;;;;5055509;28;20052;-87
2021/12/01 07:14:43;;;;;;;0.70;0.70;;;5.30;99.90;;;;;;5073855;28;20087;-88
2021/12/01 07:17:10;;;;;;;0.63;0.63;;;5.30;99.90;;;;;;5054016;28;20663;-86
2021/12/01 07:19:37;;;;;;;0.88;0.88;;;5.40;99.90;;;;;;5046074;28;20135;-88
2021/12/01 07:22:04;;;;;;;1.08;1.08;;;5.40;99.90;;;;;;5062508;28;20152;-87
2021/12/01 07:24:30;;;;;;;0.82;0.82;;;5.40;99.90;;;;;;5073702;28;20079;-88
2021/12/01 07:26:58;;;;;;;2.13;1.67;;;5.40;99.90;;;;;;5056149;28;20128;-89
2021/12/01 07:29:25;;;;;;;0.70;0.70;;;5.50;99.90;;;;;;5055737;28;20059;-86
2021/12/01 07:31:53;;;;;;;0.50;0.50;;;5.50;99.90;;;;;;5056220;28;20048;-87
2021/12/01 07:34:20;;;;;;;0.63;0.63;;;5.60;99.90;;;;;;5063233;28;20037;-87
2021/12/01 07:36:47;;;;;;;1.25;0.68;;;5.60;99.90;;;;;;5046385;28;20063;-86
2021/12/01 07:39:19;;;;;;;1.58;1.40;;;5.60;99.90;;;;;;5052309;28;20476;-88
2021/12/01 07:41:48;;;;;;;9.07;5.90;;;5.70;99.90;;;;;;5041253;28;20486;-87
2021/12/01 07:44:15;;;;;;;0.50;0.50;;;5.60;99.90;;;;;;5050875;28;20041;-87
2021/12/01 07:46:42;;;;;;;1.00;0.50;;;5.60;99.90;;;;;;5051583;28;20049;-87
2021/12/01 07:49:09;;;;;;;0.57;0.57;;;5.70;99.90;;;;;;5034078;28;20059;-88
2021/12/01 07:51:36;;;;;;;1.08;1.08;;;5.60;99.90;;;;;;5034728;28;20127;-87
2021/12/01 07:54:03;;;;;;;1.00;1.00;;;5.60;99.90;;;;;;5051242;28;20101;-86
2021/12/01 07:56:30;;;;;;;0.60;0.60;;;5.60;99.90;;;;;;5033794;28;20060;-87
2021/12/01 07:58:56;;;;;;;1.83;0.70;;;5.60;99.90;;;;;;5033081;28;20049;-89
2021/12/01 08:01:23;;;;;;;2.53;0.80;;;5.50;99.90;;;;;;5033819;28;20045;-87
2021/12/01 08:03:50;;;;;;;6.00;3.22;;;5.50;99.90;;;;;;5033780;28;20139;-86
2021/12/01 08:06:17;;;;;;;0.70;0.70;;;5.50;99.90;;;;;;5052529;28;20074;-89
2021/12/01 08:08:43;;;;;;;2.38;0.60;;;5.50;99.90;;;;;;5035585;28;20055;-87
2021/12/01 08:11:10;;;;;;;0.73;0.68;;;5.50;99.90;;;;;;5035685;28;20092;-86
2021/12/01 08:13:38;;;;;;;0.60;0.60;;;5.50;99.90;;;;;;5035619;28;20052;-86
2021/12/01 08:16:09;;;;;;;1.52;0.43;;;5.60;99.90;;;;;;5053261;28;20068;-87
2021/12/01 08:18:36;;;;;;;0.50;0.50;;;5.70;99.90;;;;;;5035376;28;20048;-88
2021/12/01 08:21:03;;;;;;;0.50;0.50;;;5.70;99.90;;;;;;5035540;28;20085;-88
2021/12/01 08:23:30;;;;;;;2.10;0.57;;;5.70;99.90;;;;;;5053024;28;20053;-86
2021/12/01 08:25:56;;;;;;;0.85;0.55;;;5.70;99.90;;;;;;5035290;28;20053;-88
2021/12/01 08:28:23;;;;;;;1.17;1.08;;;5.80;99.90;;;;;;5035419;28;20064;-89
2021/12/01 08:30:50;;;;;;;1.00;0.65;;;5.70;99.90;;;;;;5052805;28;20155;-86
2021/12/01 08:33:17;;;;;;;0.40;0.40;;;5.80;99.90;;;;;;5035262;28;20134;-86
2021/12/01 08:35:45;;;;;;;0.40;0.30;;;5.90;99.90;;;;;;5035502;28;20166;-87
2021/12/01 08:38:11;;;;;;;0.40;0.40;;;5.90;99.90;;;;;;5052851;28;20052;-87
2021/12/01 08:40:40;;;;;;;0.75;0.38;;;5.90;99.90;;;;;;5035462;28;20484;-88
2021/12/01 08:43:07;;;;;;;0.90;0.50;;;5.90;99.90;;;;;;5035029;28;20053;-85
2021/12/01 08:45:34;;;;;;;0.55;0.50;;;5.90;99.90;;;;;;5052813;28;20131;-90
2021/12/01 08:48:03;;;;;;;1.85;0.65;;;5.90;99.90;;;;;;5035717;28;20045;-86
2021/12/01 08:50:31;;;;;;;0.40;0.40;;;5.90;99.90;;;;;;5034899;28;20412;-85
2021/12/01 08:52:58;;;;;;;1.45;0.40;;;6.00;99.90;;;;;;5034839;28;20132;-85
2021/12/01 08:55:26;;;;;;;0.50;0.50;;;6.00;99.90;;;;;;5034934;28;20394;-87
2021/12/01 08:58:09;;;;;;;1.27;0.60;;;6.00;99.90;;;;;;5036911;28;20045;-86
2021/12/01 09:00:40;;;;;;;0.85;0.60;;;6.00;99.90;;;;;;5035343;28;20045;-87
2021/12/01 09:03:08;;;;;;;0.50;0.50;;;6.00;99.90;;;;;;5035000;28;20056;-86
2021/12/01 09:05:34;;;;;;;1.95;1.25;;;6.00;99.90;;;;;;5034876;28;20059;-90
2021/12/01 09:08:01;;;;;;;1.10;0.70;;;6.00;99.90;;;;;;5034964;28;20048;-88
2021/12/01 09:10:28;;;;;;;0.40;0.40;;;6.00;99.90;;;;;;5034771;28;20049;-86
2021/12/01 09:12:55;;;;;;;0.70;0.70;;;6.00;99.90;;;;;;5038515;28;20136;-84
2021/12/01 09:15:22;;;;;;;1.20;0.43;;;5.90;99.90;;;;;;5055933;28;20131;-88
2021/12/01 09:17:49;;;;;;;2.00;0.60;;;6.00;99.90;;;;;;5056109;28;20123;-87
2021/12/01 09:20:16;;;;;;;0.43;0.43;;;6.00;99.90;;;;;;5038963;28;20493;-91
2021/12/01 09:22:43;;;;;;;0.50;0.50;;;6.00;99.90;;;;;;5055847;28;20049;-87
2021/12/01 09:25:09;;;;;;;1.45;0.60;;;6.00;99.90;;;;;;5038341;28;20135;-87
2021/12/01 09:27:37;;;;;;;1.23;0.65;;;6.00;99.90;;;;;;5038356;28;20091;-88
2021/12/01 09:30:06;;;;;;;1.05;0.50;;;6.00;99.90;;;;;;5037973;28;20049;-88
2021/12/01 09:32:37;;;;;;;0.68;0.47;;;5.90;99.90;;;;;;5038209;28;20045;-88
2021/12/01 09:35:06;;;;;;;0.80;0.80;;;5.90;99.90;;;;;;5037327;28;20136;-86
2021/12/01 09:37:34;;;;;;;1.90;0.60;;;5.90;99.90;;;;;;5037963;28;20116;-88
2021/12/01 09:40:03;;;;;;;0.60;0.60;;;5.90;99.90;;;;;;5036896;28;20477;-88
2021/12/01 09:42:30;;;;;;;0.40;0.40;;;5.90;99.90;;;;;;5037998;28;20186;-88
2021/12/01 09:44:57;;;;;;;0.70;0.50;;;5.90;99.90;;;;;;5037853;28;20057;-86
2021/12/01 09:47:24;;;;;;;0.40;0.40;;;5.90;99.90;;;;;;5038107;28;20060;-87
2021/12/01 09:49:51;;;;;;;0.30;0.30;;;5.90;99.90;;;;;;5055350;28;20488;-87
2021/12/01 09:52:18;;;;;;;1.50;0.55;;;5.90;99.90;;;;;;5037652;28;20041;-87
2021/12/01 09:54:45;;;;;;;0.50;0.50;;;5.90;99.90;;;;;;5037571;28;20052;-86
2021/12/01 09:57:14;;;;;;;0.80;0.55;;;5.90;99.90;;;;;;5055289;28;20060;-86
2021/12/01 09:59:42;;;;;;;1.35;0.50;;;6.00;99.90;;;;;;5056755;28;20136;-88
2021/12/01 10:02:11;;;;;;;0.73;0.47;;;6.00;99.90;;;;;;5037610;28;20053;-88
2021/12/01 10:04:38;;;;;;;0.45;0.45;;;6.10;99.90;;;;;;5037251;28;20057;-86
2021/12/01 10:07:30;;;;;;;0.70;0.60;;;6.10;99.90;;;;;;5046086;28;20467;-87
2021/12/01 10:10:06;;;;;;;0.65;0.60;;;6.20;99.90;;;;;;5050693;28;20051;-89
2021/12/01 10:12:51;;;;;;;2.15;0.40;;;6.30;99.90;;;;;;5049575;28;20123;-87
2021/12/01 10:15:32;;;;;;;0.77;0.30;;;6.30;99.90;;;;;;5057722;28;20060;-88
2021/12/01 10:18:13;;;;;;;0.30;0.30;;;6.50;99.90;;;;;;5074591;28;20072;-88
2021/12/01 10:20:58;;;;;;;0.30;0.30;;;6.50;99.90;;;;;;5058040;28;20052;-87
2021/12/01 10:23:25;;;;;;;0.30;0.30;;;6.50;99.90;;;;;;5056048;28;20052;-88
2021/12/01 10:26:05;;;;;;;0.40;0.40;;;6.50;99.90;;;;;;5074066;28;20049;-86
2021/12/01 10:28:35;;;;;;;0.77;0.50;;;6.60;99.90;;;;;;5057135;28;20061;-87
2021/12/01 10:31:05;;;;;;;0.40;0.40;;;6.60;99.90;;;;;;5057628;28;20105;-87
2021/12/01 10:33:32;;;;;;;1.85;0.40;;;6.70;99.90;;;;;;5073363;28;20056;-86
2021/12/01 10:36:00;;;;;;;0.50;0.50;;;6.80;99.90;;;;;;5073965;28;20295;-88
2021/12/01 10:38:30;;;;;;;0.30;0.30;;;6.80;99.90;;;;;;5056491;28;20143;-87
2021/12/01 10:41:09;;;;;;;0.40;0.40;;;6.80;99.90;;;;;;5056887;28;20044;-87
2021/12/01 10:43:39;;;;;;;1.27;0.40;;;6.70;99.90;;;;;;5056312;28;20060;-86
2021/12/01 10:46:09;;;;;;;0.55;0.45;;;6.70;99.90;;;;;;5056557;28;20055;-88
2021/12/01 10:48:37;;;;;;;0.80;0.50;;;6.60;99.90;;;;;;5073074;28;20048;-86
2021/12/01 10:51:04;;;;;;;0.45;0.45;;;6.70;99.90;;;;;;5056333;28;20052;-87
2021/12/01 10:53:31;;;;;;;0.95;0.40;;;6.80;99.90;;;;;;5056775;28;20102;-87
2021/12/01 10:56:05;;;;;;;10.35;2.53;;;6.80;99.90;;;;;;5056651;28;20048;-88
2021/12/01 10:58:38;;;;;;;1.08;0.47;;;6.80;99.90;;;;;;5073889;28;20056;-86
2021/12/01 11:01:18;;;;;;;0.30;0.30;;;6.70;99.90;;;;;;5056410;28;20059;-89
2021/12/01 11:03:46;;;;;;;0.30;0.30;;;6.80;99.90;;;;;;5056696;28;20044;-89
2021/12/01 11:06:19;;;;;;;0.22;0.22;;;6.80;99.90;;;;;;5056885;28;20443;-89
2021/12/01 11:08:55;;;;;;;0.28;0.28;;;6.80;99.90;;;;;;5056140;28;20135;-87
2021/12/01 11:11:24;;;;;;;0.20;0.20;;;6.80;99.90;;;;;;5073652;28;20062;-88
2021/12/01 11:14:19;;;;;;;0.85;0.20;;;6.80;99.90;;;;;;5073744;28;20053;-88
2021/12/01 11:16:46;;;;;;;0.13;0.13;;;6.90;99.90;;;;;;5074023;28;20054;-89
2021/12/01 11:19:13;;;;;;;1.65;0.30;;;7.20;99.90;;;;;;5056390;28;20079;-90
2021/12/01 11:21:41;;;;;;;0.20;0.20;;;7.30;99.90;;;;;;5056670;28;20119;-88
2021/12/01 11:24:13;;;;;;;0.10;0.10;;;7.50;99.90;;;;;;5073836;28;20058;-90
2021/12/01 11:26:44;;;;;;;0.10;0.10;;;7.70;99.90;;;;;;5073532;28;20049;-88
2021/12/01 11:29:31;;;;;;;3.97;0.30;;;7.80;99.90;;;;;;5057327;28;20063;-89
2021/12/01 11:31:59;;;;;;;0.17;0.17;;;7.80;99.90;;;;;;5072219;28;20058;-87
2021/12/01 11:34:26;;;;;;;0.32;0.20;;;7.70;99.90;;;;;;5071267;28;20511;-86
2021/12/01 11:36:53;;;;;;;2.13;0.20;;;7.50;99.90;;;;;;5070740;28;20044;-89
2021/12/01 11:39:26;;;;;;;0.40;0.40;;;7.50;99.90;;;;;;5071522;28;20492;-86
2021/12/01 11:41:55;;;;;;;0.93;0.20;;;7.40;99.90;;;;;;5055726;28;20044;-87
2021/12/01 11:44:25;;;;;;;0.30;0.28;;;7.30;99.90;;;;;;5056194;28;20127;-88
2021/12/01 11:46:52;;;;;;;0.30;0.30;;;7.20;99.90;;;;;;5056217;28;20502;-85
2021/12/01 11:49:22;;;;;;;0.20;0.20;;;7.20;99.90;;;;;;5056024;28;20488;-86
2021/12/01 11:51:58;;;;;;;1.30;0.30;;;7.30;99.90;;;;;;5056060;28;20412;-89
2021/12/01 11:54:26;;;;;;;0.40;0.40;;;7.30;99.90;;;;;;5056508;28;20533;-88
2021/12/01 11:56:57;;;;;;;0.30;0.30;;;7.30;99.90;;;;;;5055942;28;20506;-88
2021/12/01 11:59:28;;;;;;;0.65;0.40;;;7.30;99.90;;;;;;5056271;28;20048;-87
2021/12/01 12:02:00;;;;;;;0.20;0.20;;;7.30;99.90;;;;;;5056118;28;20099;-88
2021/12/01 12:04:44;;;;;;;0.28;0.10;;;7.30;99.90;;;;;;5056003;28;20155;-86
2021/12/01 12:07:30;;;;;;;0.20;0.20;;;7.40;99.90;;;;;;5056492;28;20132;-87
2021/12/01 12:10:12;;;;;;;1.27;0.20;;;7.50;99.90;;;;;;5055828;28;20491;-87
2021/12/01 12:12:52;;;;;;;1.90;0.10;;;7.50;99.90;;;;;;5055934;28;20052;-88
2021/12/01 12:15:48;;;;;;;0.10;0.10;;;7.60;99.90;;;;;;5055827;28;20144;-89
2021/12/01 12:18:34;;;;;;;0.20;0.20;;;7.70;99.90;;;;;;5055831;28;20052;-87
2021/12/01 12:21:36;;;;;;;0.15;0.15;;;7.80;99.90;;;;;;5055551;28;20098;-87
2021/12/01 12:24:10;;;;;;;0.57;0.20;;;7.90;99.90;;;;;;5055561;28;20072;-86
2021/12/01 12:27:03;;;;;;;0.20;0.20;;;7.90;99.90;;;;;;5055490;28;20051;-86
2021/12/01 12:29:43;;;;;;;0.20;0.20;;;8.00;99.90;;;;;;5054369;28;20563;-87
2021/12/01 12:32:18;;;;;;;0.65;0.10;;;7.80;99.90;;;;;;5055716;28;20059;-86
2021/12/01 12:34:51;;;;;;;0.30;0.17;;;7.70;99.90;;;;;;5073576;28;20106;-87
2021/12/01 12:37:24;;;;;;;0.10;0.10;;;7.70;99.90;;;;;;5073054;28;20087;-87
2021/12/01 12:39:55;;;;;;;0.20;0.20;;;7.70;99.90;;;;;;5071958;28;20057;-87
2021/12/01 12:42:23;;;;;;;0.10;0.10;;;7.80;99.90;;;;;;5055588;28;20051;-89
2021/12/01 12:44:52;;;;;;;0.03;0.03;;;7.80;99.90;;;;;;5073643;28;20074;-86
2021/12/01 12:47:42;;;;;;;0.00;0.00;;;7.80;99.90;;;;;;5059789;28;20133;-93
2021/12/01 12:50:18;;;;;;;0.25;0.10;;;7.80;99.90;;;;;;5059426;28;20049;-87
2021/12/01 12:52:48;;;;;;;0.00;0.00;;;7.70;99.90;;;;;;5076651;28;20044;-88
2021/12/01 12:55:23;;;;;;;0.10;0.10;;;7.50;99.90;;;;;;5077000;28;20048;-87
2021/12/01 12:57:58;;;;;;;0.20;0.20;;;7.40;99.90;;;;;;5059176;28;20080;-88
2021/12/01 13:00:30;;;;;;;0.10;0.10;;;7.20;99.90;;;;;;5059199;28;20071;-86
2021/12/01 13:03:22;;;;;;;0.20;0.20;;;7.20;99.90;;;;;;5059089;28;20048;-87
2021/12/01 13:06:06;;;;;;;0.22;0.20;;;7.10;99.90;;;;;;5059540;28;20052;-87
2021/12/01 13:08:36;;;;;;;0.32;0.22;;;7.20;99.90;;;;;;5059377;28;20132;-87
2021/12/01 13:11:33;;;;;;;0.20;0.20;;;7.20;99.90;;;;;;5059554;28;20044;-89
2021/12/01 13:13:59;;;;;;;;;;;7.30;99.90;;;;;;5056787;28;20560;-89
2021/12/01 13:16:29;;;;;;;0.90;0.40;;;7.30;99.90;;;;;;5059353;28;19920;-89